createdAt,value
2019-05-02T00:00:58.312Z,34.55
2019-05-02T00:03:35.899Z,35.52
2019-05-02T00:06:09.669Z,39.08
2019-05-02T00:08:48.522Z,38.17
2019-05-02T00:11:25.498Z,39.35
2019-05-02T00:13:59.461Z,38.20
2019-05-02T00:16:33.782Z,37.42
2019-05-02T00:19:09.049Z,38.70
2019-05-02T00:21:43.225Z,39.33
2019-05-02T00:24:16.801Z,38.15
2019-05-02T00:26:56.221Z,40.85
2019-05-02T00:29:27.889Z,39.65
2019-05-02T00:32:00.296Z,37.80
2019-05-02T00:34:35.022Z,41.37
2019-05-02T00:37:18.791Z,41.30
2019-05-02T00:39:49.211Z,40.88
2019-05-02T00:42:28.383Z,38.75
2019-05-02T00:45:04.285Z,39.58
2019-05-02T00:47:47.686Z,40.65
2019-05-02T00:50:28.931Z,42.85
2019-05-02T00:53:50.064Z,40.20
2019-05-02T00:56:23.240Z,42.45
2019-05-02T00:58:55.814Z,43.05
2019-05-02T01:01:36.172Z,42.17
2019-05-02T01:11:34.901Z,44.08
2019-05-02T01:14:12.471Z,44.08
2019-05-02T01:16:49.511Z,45.15
2019-05-02T01:19:27.700Z,46.48
2019-05-02T01:22:03.998Z,47.90
2019-05-02T01:24:39.618Z,47.43
2019-05-02T01:27:23.790Z,46.85
2019-05-02T01:30:05.409Z,48.00
2019-05-02T01:32:56.553Z,46.80
2019-05-02T01:35:44.388Z,46.40
2019-05-02T01:38:21.525Z,49.30
2019-05-02T01:40:56.196Z,47.85
2019-05-02T01:43:33.239Z,50.33
2019-05-02T01:46:05.971Z,47.35
2019-05-02T01:48:45.920Z,49.75
2019-05-02T01:51:19.568Z,48.63
2019-05-02T01:53:55.456Z,47.75
2019-05-02T01:56:33.225Z,48.73
2019-05-02T01:59:05.845Z,48.48
2019-05-02T02:01:39.428Z,49.10
2019-05-02T02:04:16.318Z,49.98
2019-05-02T02:06:57.210Z,50.78
2019-05-02T02:09:38.918Z,51.40
2019-05-02T02:12:18.952Z,51.55
2019-05-02T02:14:55.450Z,50.98
2019-05-02T02:17:28.584Z,53.25
2019-05-02T02:20:09.652Z,51.30
2019-05-02T02:24:25.222Z,52.20
2019-05-02T02:27:04.309Z,53.13
2019-05-02T02:29:43.875Z,53.58
2019-05-02T02:32:20.096Z,54.03
2019-05-02T02:34:56.571Z,54.40
2019-05-02T02:37:29.974Z,56.05
2019-05-02T02:41:45.488Z,54.95
2019-05-02T02:44:21.398Z,54.15
2019-05-02T02:46:56.953Z,56.28
2019-05-02T02:49:35.351Z,56.80
2019-05-02T02:52:09.089Z,57.20
2019-05-02T02:54:45.082Z,55.23
2019-05-02T02:57:26.003Z,52.30
2019-05-02T03:00:08.157Z,57.48
2019-05-02T03:02:47.734Z,57.83
2019-05-02T03:05:18.980Z,56.75
2019-05-02T03:07:52.565Z,56.88
2019-05-02T03:10:27.188Z,54.53
2019-05-02T03:13:24.753Z,57.33
2019-05-02T03:16:11.573Z,55.33
2019-05-02T03:18:44.918Z,59.40
2019-05-02T03:21:22.190Z,58.03
2019-05-02T03:24:03.270Z,55.28
2019-05-02T03:26:31.767Z,55.45
2019-05-02T03:29:08.050Z,55.73
2019-05-02T03:31:44.692Z,58.10
2019-05-02T03:34:18.819Z,59.70
2019-05-02T03:37:10.707Z,60.43
2019-05-02T03:39:38.721Z,56.85
2019-05-02T03:42:12.025Z,63.33
2019-05-02T03:44:54.890Z,64.90
2019-05-02T03:47:20.019Z,62.20
2019-05-02T03:49:55.228Z,62.60
2019-05-02T03:52:28.707Z,64.58
2019-05-02T03:55:01.067Z,62.43
2019-05-02T03:57:41.948Z,65.85
2019-05-02T04:00:20.862Z,65.40
2019-05-02T04:02:59.176Z,68.05
2019-05-02T04:05:33.358Z,66.42
2019-05-02T04:08:03.699Z,69.27
2019-05-02T04:10:59.653Z,66.75
2019-05-02T04:13:38.155Z,68.50
2019-05-02T04:16:19.941Z,69.45
2019-05-02T04:19:05.749Z,69.87
2019-05-02T04:21:43.347Z,68.67
2019-05-02T04:24:17.535Z,70.15
2019-05-02T04:26:56.370Z,67.08
2019-05-02T04:29:35.234Z,67.80
2019-05-02T04:32:11.408Z,74.05
2019-05-02T04:34:57.973Z,71.67
2019-05-02T04:37:40.918Z,67.00
2019-05-02T04:40:14.722Z,68.02
2019-05-02T04:43:00.303Z,68.87
2019-05-02T04:45:38.356Z,66.33
2019-05-02T04:48:03.984Z,62.53
2019-05-02T04:50:40.318Z,63.85
2019-05-02T04:53:12.828Z,64.77
2019-05-02T04:56:01.617Z,66.05
2019-05-02T04:58:29.689Z,64.22
2019-05-02T05:01:04.544Z,64.22
2019-05-02T05:03:41.061Z,64.70
2019-05-02T05:06:15.706Z,67.85
2019-05-02T05:08:48.475Z,67.45
2019-05-02T05:11:24.996Z,66.12
2019-05-02T05:14:00.410Z,64.40
2019-05-02T05:16:37.276Z,67.42
2019-05-02T05:19:11.463Z,63.75
2019-05-02T05:21:47.631Z,64.47
2019-05-02T05:27:00.276Z,63.42
2019-05-02T05:29:37.363Z,63.02
2019-05-02T05:32:18.840Z,64.17
2019-05-02T05:34:54.065Z,64.20
2019-05-02T05:37:29.486Z,64.95
2019-05-02T05:42:37.964Z,62.15
2019-05-02T05:45:14.013Z,62.03
2019-05-02T05:47:52.392Z,61.92
2019-05-02T05:50:27.594Z,62.75
2019-05-02T05:53:04.792Z,63.45
2019-05-02T05:55:44.125Z,65.47
2019-05-02T05:58:22.462Z,67.17
2019-05-02T06:00:58.406Z,66.10
2019-05-02T06:03:44.537Z,64.10
2019-05-02T06:06:24.437Z,64.75
2019-05-02T06:09:02.205Z,67.12
2019-05-02T06:11:39.934Z,65.70
2019-05-02T06:14:19.960Z,64.15
2019-05-02T06:16:51.785Z,62.73
2019-05-02T06:19:26.684Z,62.83
2019-05-02T06:22:00.156Z,64.62
2019-05-02T06:24:38.048Z,62.88
2019-05-02T17:40:01.649Z,8.90
2019-05-02T17:44:22.213Z,9.58
2019-05-02T17:46:58.132Z,9.93
2019-05-02T17:49:36.650Z,9.50
2019-05-02T17:52:43.029Z,9.25
2019-05-02T17:55:18.408Z,9.80
2019-05-02T17:58:04.574Z,10.10
2019-05-02T18:03:18.482Z,10.03
2019-05-02T18:05:58.809Z,10.03
2019-05-02T18:08:36.026Z,10.80
2019-05-02T18:11:14.385Z,10.25
2019-05-02T18:13:51.777Z,10.68
2019-05-02T18:16:25.129Z,11.22
2019-05-02T18:19:01.938Z,10.63
2019-05-02T18:21:58.201Z,10.23
2019-05-02T18:24:42.817Z,11.38
2019-05-02T18:27:19.743Z,10.90
2019-05-02T18:29:58.175Z,10.90
2019-05-02T18:32:44.072Z,10.45
2019-05-02T18:35:28.858Z,10.35
2019-05-02T18:38:07.357Z,11.08
2019-05-02T18:40:42.567Z,10.00
2019-05-02T18:43:28.156Z,10.15
2019-05-02T18:46:07.723Z,10.03
2019-05-02T18:52:38.055Z,9.95
2019-05-02T18:55:23.059Z,11.15
2019-05-02T18:58:05.414Z,10.90
2019-05-02T19:00:39.587Z,10.78
2019-05-02T19:03:17.242Z,11.65
2019-05-02T19:05:57.273Z,16.45
2019-05-02T19:08:45.261Z,17.20
2019-05-02T19:11:21.987Z,17.40
2019-05-02T19:14:04.900Z,18.67
2019-05-02T19:16:38.581Z,19.35
2019-05-02T19:19:12.589Z,18.87
2019-05-02T19:21:47.691Z,20.35
2019-05-02T19:24:27.516Z,19.32
2019-05-02T19:27:30.168Z,20.35
2019-05-02T19:30:03.832Z,19.90
2019-05-02T19:38:27.456Z,21.52
2019-05-02T19:41:05.467Z,20.43
2019-05-02T19:44:21.400Z,20.08
2019-05-02T19:46:57.333Z,20.85
2019-05-02T19:49:37.167Z,19.12
2019-05-02T19:52:12.865Z,18.62
2019-05-02T19:54:46.731Z,16.62
2019-05-02T19:57:24.873Z,14.70
2019-05-02T19:59:57.162Z,14.28
2019-05-02T20:02:37.430Z,13.95
2019-05-02T20:05:36.765Z,12.30
2019-05-02T20:08:22.819Z,12.03
2019-05-02T20:10:58.638Z,11.55
2019-05-02T20:13:33.786Z,11.53
2019-05-02T20:16:16.532Z,10.30
2019-05-02T20:18:54.030Z,11.43
2019-05-02T20:21:29.751Z,10.70
2019-05-02T20:24:17.575Z,10.80
2019-05-02T20:26:54.536Z,11.48
2019-05-02T20:29:25.109Z,12.53
2019-05-02T20:32:02.137Z,12.73
2019-05-02T20:34:42.122Z,13.13
2019-05-02T20:50:53.437Z,12.70
2019-05-02T20:56:14.903Z,14.98
2019-05-02T20:58:52.748Z,15.13
2019-05-02T21:01:31.655Z,14.60
2019-05-02T21:05:15.070Z,16.20
2019-05-02T21:08:01.963Z,15.78
2019-05-02T21:10:43.251Z,15.95
2019-05-02T21:13:32.617Z,16.23
2019-05-02T21:16:12.395Z,16.60
2019-05-02T21:18:46.167Z,16.48
2019-05-02T21:21:25.769Z,15.58
2019-05-02T21:24:17.808Z,15.18
2019-05-02T21:27:01.788Z,15.63
2019-05-02T21:29:37.088Z,14.75
2019-05-02T21:32:16.174Z,15.72
2019-05-02T21:34:55.133Z,14.33
2019-05-02T21:37:29.078Z,14.93
2019-05-02T21:40:09.422Z,14.30
2019-05-02T21:42:44.086Z,14.73
2019-05-02T21:45:19.969Z,14.38
2019-05-02T21:47:58.877Z,12.43
2019-05-02T21:50:46.385Z,11.55
2019-05-02T21:53:28.243Z,12.43
2019-05-02T21:56:04.987Z,11.57
2019-05-02T21:58:42.698Z,10.40
2019-05-02T22:01:17.887Z,10.13
2019-05-02T22:03:53.236Z,10.80
2019-05-02T22:06:32.979Z,10.78
2019-05-02T22:09:07.732Z,10.08
2019-05-02T22:11:46.615Z,9.75
2019-05-02T22:14:22.299Z,9.43
2019-05-02T22:16:54.581Z,9.33
2019-05-02T22:19:29.876Z,8.58
2019-05-02T22:22:07.155Z,8.78
2019-05-02T22:24:49.169Z,9.08
2019-05-02T22:27:32.362Z,8.03
2019-05-02T22:30:13.855Z,8.40
2019-05-02T22:32:48.600Z,8.65
2019-05-02T22:35:43.464Z,9.28
2019-05-02T22:38:26.451Z,11.12
2019-05-02T22:41:04.193Z,10.68
2019-05-02T22:43:42.133Z,12.10
2019-05-02T22:46:43.285Z,12.05
2019-05-02T22:49:17.222Z,11.90
2019-05-02T22:51:56.585Z,11.05
2019-05-02T22:54:31.545Z,11.83
2019-05-02T22:57:04.654Z,12.20
2019-05-02T22:59:44.487Z,11.88
2019-05-02T23:02:17.981Z,11.97
2019-05-02T23:04:55.325Z,12.65
2019-05-02T23:07:31.724Z,13.48
2019-05-02T23:10:05.465Z,13.10
2019-05-02T23:12:39.410Z,13.45
2019-05-02T23:15:37.339Z,14.47
2019-05-02T23:18:17.286Z,14.80
2019-05-02T23:21:02.862Z,15.63
2019-05-02T23:23:41.846Z,16.90
2019-05-02T23:26:35.975Z,17.77
2019-05-02T23:29:34.451Z,18.50
2019-05-02T23:32:11.835Z,18.05
2019-05-02T23:34:46.380Z,18.77
2019-05-02T23:37:18.957Z,18.70
2019-05-02T23:39:56.239Z,16.52
2019-05-02T23:42:34.310Z,17.80
2019-05-02T23:45:09.450Z,16.87
2019-05-02T23:47:44.429Z,18.27
2019-05-02T23:50:17.976Z,19.15
2019-05-02T23:52:55.342Z,20.12
2019-05-02T23:55:28.325Z,20.45
2019-05-02T23:58:08.051Z,20.45
